Time;durP1;ratioP1;P1;durP2;ratioP2;P2;SDS_P1;SDS_P2;PMS_P1;PMS_P2;Temp;Humidity;BMP_temperature;BMP_pressure;BME280_temperature;BME280_humidity;BME280_pressure;Samples;Min_cycle;Max_cycle;Signal;HPM_P1;HPM_P2
2021/01/10 00:00:58;;;;;;;21.27;11.30;;;;;;;;;;5076383;28;20494;-50
2021/01/10 00:03:24;;;;;;;20.38;10.85;;;;;;;;;;5064702;28;20040;-49
2021/01/10 00:05:50;;;;;;;20.85;10.98;;;;;;;;;;5065103;28;20072;-51
2021/01/10 00:08:17;;;;;;;20.75;10.63;;;;;;;;;;5064295;28;20490;-52
2021/01/10 00:10:43;;;;;;;24.83;12.48;;;;;;;;;;5064771;28;20028;-50
2021/01/10 00:13:10;;;;;;;21.75;11.20;;;;;;;;;;5064383;28;20037;-54
2021/01/10 00:15:36;;;;;;;28.35;14.23;;;;;;;;;;5063969;28;20025;-53
2021/01/10 00:18:05;;;;;;;29.33;15.20;;;;;;;;;;5095916;28;20027;-53
2021/01/10 00:20:31;;;;;;;33.47;16.52;;;;;;;;;;5105736;28;20039;-51
2021/01/10 00:22:58;;;;;;;31.35;15.10;;;;;;;;;;5086576;28;20637;-49
2021/01/10 00:25:25;;;;;;;33.85;16.02;;;;;;;;;;5084462;28;20028;-51
2021/01/10 00:27:52;;;;;;;27.38;14.07;;;;;;;;;;5084910;28;20052;-50
2021/01/10 00:30:19;;;;;;;29.83;14.02;;;;;;;;;;5083429;28;20053;-51
2021/01/10 00:32:49;;;;;;;26.50;12.73;;;;;;;;;;5083860;28;20047;-52
2021/01/10 00:35:16;;;;;;;21.13;10.68;;;;;;;;;;5081950;28;20075;-53
2021/01/10 00:37:44;;;;;;;20.73;11.13;;;;;;;;;;5084419;28;20039;-50
2021/01/10 00:40:11;;;;;;;26.27;12.77;;;;;;;;;;5083482;28;20734;-52
2021/01/10 00:42:39;;;;;;;21.17;11.82;;;;;;;;;;5084145;28;20024;-50
2021/01/10 00:45:05;;;;;;;19.77;10.40;;;;;;;;;;5085024;28;20024;-52
2021/01/10 00:47:31;;;;;;;16.85;9.23;;;;;;;;;;5085011;28;20028;-49
2021/01/10 00:49:57;;;;;;;20.13;9.82;;;;;;;;;;5084191;28;20023;-51
2021/01/10 00:52:27;;;;;;;16.25;9.38;;;;;;;;;;5083231;28;20397;-52
2021/01/10 00:54:53;;;;;;;17.92;9.85;;;;;;;;;;5083591;28;20207;-53
2021/01/10 00:57:20;;;;;;;17.27;9.23;;;;;;;;;;5084683;28;20032;-52
2021/01/10 00:59:46;;;;;;;17.77;8.65;;;;;;;;;;5083143;28;20101;-53
2021/01/10 01:02:13;;;;;;;14.60;8.57;;;;;;;;;;5083839;28;20112;-50
2021/01/10 01:04:39;;;;;;;15.65;7.70;;;;;;;;;;5075392;28;20013;-51
2021/01/10 01:07:05;;;;;;;16.05;8.45;;;;;;;;;;5064309;28;20117;-53
2021/01/10 01:09:31;;;;;;;17.25;8.95;;;;;;;;;;5064526;28;20486;-51
2021/01/10 01:11:57;;;;;;;16.73;8.20;;;;;;;;;;5063817;28;20029;-50
2021/01/10 01:14:23;;;;;;;11.98;7.22;;;;;;;;;;5063161;28;20395;-53
2021/01/10 01:16:49;;;;;;;15.23;7.55;;;;;;;;;;5063747;28;20031;-50
2021/01/10 01:19:16;;;;;;;15.35;8.90;;;;;;;;;;5063385;28;20720;-54
2021/01/10 01:21:42;;;;;;;17.05;8.50;;;;;;;;;;5063708;28;20036;-52
2021/01/10 01:24:08;;;;;;;14.02;7.70;;;;;;;;;;5063187;28;20055;-51
2021/01/10 01:26:35;;;;;;;17.20;9.20;;;;;;;;;;5064429;28;20027;-50
2021/01/10 01:29:01;;;;;;;16.17;8.38;;;;;;;;;;5064704;28;20434;-52
2021/01/10 01:31:29;;;;;;;18.08;9.00;;;;;;;;;;5063382;28;20546;-51
2021/01/10 01:33:56;;;;;;;18.42;9.02;;;;;;;;;;5061694;28;20025;-53
2021/01/10 01:36:29;;;;;;;17.00;9.55;;;;;;;;;;5063630;28;20031;-53
2021/01/10 01:38:57;;;;;;;17.53;9.83;;;;;;;;;;5066983;28;20024;-54
2021/01/10 01:41:23;;;;;;;19.13;9.20;;;;;;;;;;5083736;28;20082;-56
2021/01/10 01:43:51;;;;;;;17.23;9.65;;;;;;;;;;5083109;28;20074;-57
2021/01/10 01:46:37;;;;;;;17.13;9.63;;;;;;;;;;5084163;28;20051;-57
2021/01/10 01:49:09;;;;;;;15.63;8.98;;;;;;;;;;5083899;28;20038;-57
2021/01/10 01:51:36;;;;;;;17.70;9.40;;;;;;;;;;5086742;28;20055;-57
2021/01/10 01:54:03;;;;;;;15.57;8.45;;;;;;;;;;5088855;28;20547;-57
2021/01/10 01:56:29;;;;;;;16.77;9.00;;;;;;;;;;5088081;28;20111;-56
2021/01/10 01:58:56;;;;;;;12.95;7.65;;;;;;;;;;5087861;28;20119;-57
2021/01/10 02:01:22;;;;;;;15.45;8.63;;;;;;;;;;5087878;28;20456;-57
2021/01/10 02:03:49;;;;;;;14.02;7.60;;;;;;;;;;5087668;28;20505;-57
2021/01/10 02:06:23;;;;;;;14.23;7.90;;;;;;;;;;5086500;28;20085;-57
2021/01/10 02:08:52;;;;;;;13.80;7.43;;;;;;;;;;5087859;28;20051;-56
2021/01/10 02:11:18;;;;;;;13.38;7.32;;;;;;;;;;5087723;28;20713;-57
2021/01/10 02:13:46;;;;;;;14.52;7.40;;;;;;;;;;5087289;28;20047;-56
2021/01/10 02:16:13;;;;;;;14.73;7.22;;;;;;;;;;5086239;28;20382;-57
2021/01/10 02:18:40;;;;;;;14.27;7.60;;;;;;;;;;5087717;28;20112;-56
2021/01/10 02:21:08;;;;;;;14.48;7.50;;;;;;;;;;5087552;28;20042;-56
2021/01/10 02:23:34;;;;;;;19.45;9.65;;;;;;;;;;5086922;28;20044;-56
2021/01/10 02:26:02;;;;;;;20.42;9.57;;;;;;;;;;5087481;28;20020;-57
2021/01/10 02:28:28;;;;;;;24.45;11.52;;;;;;;;;;5087776;28;20016;-56
2021/01/10 02:30:56;;;;;;;25.48;11.30;;;;;;;;;;5088079;28;20027;-57
2021/01/10 02:33:32;;;;;;;23.48;10.57;;;;;;;;;;5085972;28;20058;-56
2021/01/10 02:36:04;;;;;;;26.42;12.45;;;;;;;;;;5087187;28;20404;-57
2021/01/10 02:38:33;;;;;;;31.23;12.55;;;;;;;;;;5085836;28;20552;-56
2021/01/10 02:41:17;;;;;;;26.30;12.27;;;;;;;;;;5087369;28;20024;-57
2021/01/10 02:43:47;;;;;;;25.30;11.38;;;;;;;;;;5087305;28;20089;-56
2021/01/10 02:46:13;;;;;;;21.02;10.27;;;;;;;;;;5087236;28;20016;-57
2021/01/10 02:48:39;;;;;;;18.95;9.80;;;;;;;;;;5086900;28;20541;-57
2021/01/10 02:51:05;;;;;;;15.55;8.05;;;;;;;;;;5086549;28;20051;-57
2021/01/10 02:53:32;;;;;;;17.13;8.18;;;;;;;;;;5086124;28;20502;-57
2021/01/10 02:55:59;;;;;;;16.23;7.70;;;;;;;;;;5086883;28;20443;-56
2021/01/10 02:58:27;;;;;;;13.40;7.25;;;;;;;;;;5087176;28;20117;-57
2021/01/10 03:00:56;;;;;;;13.25;6.88;;;;;;;;;;5087898;28;20071;-57
2021/01/10 03:03:22;;;;;;;15.18;7.10;;;;;;;;;;5085601;28;20436;-56
2021/01/10 03:05:48;;;;;;;16.67;8.52;;;;;;;;;;5087091;28;20020;-57
2021/01/10 03:08:15;;;;;;;14.00;7.60;;;;;;;;;;5086399;28;20032;-57
2021/01/10 03:10:41;;;;;;;15.88;8.00;;;;;;;;;;5086826;28;20024;-57
2021/01/10 03:13:07;;;;;;;17.13;9.55;;;;;;;;;;5086373;28;20560;-58
2021/01/10 03:15:34;;;;;;;15.10;8.10;;;;;;;;;;5086614;28;20052;-56
2021/01/10 03:18:17;;;;;;;15.52;7.93;;;;;;;;;;5086289;28;20036;-57
2021/01/10 03:20:43;;;;;;;13.15;7.75;;;;;;;;;;5086700;28;20020;-57
2021/01/10 03:23:09;;;;;;;15.80;7.82;;;;;;;;;;5086020;28;20465;-57
2021/01/10 03:25:35;;;;;;;15.98;7.22;;;;;;;;;;5086606;28;20055;-56
2021/01/10 03:28:01;;;;;;;16.08;8.32;;;;;;;;;;5086312;28;20028;-56
2021/01/10 03:30:28;;;;;;;13.73;7.00;;;;;;;;;;5086476;28;20099;-56
2021/01/10 03:32:55;;;;;;;15.30;7.55;;;;;;;;;;5086165;28;20117;-56
2021/01/10 03:35:22;;;;;;;10.68;6.00;;;;;;;;;;5085532;28;20028;-56
2021/01/10 03:37:48;;;;;;;13.75;7.00;;;;;;;;;;5086731;28;20066;-55
2021/01/10 03:40:14;;;;;;;12.98;7.13;;;;;;;;;;5085742;28;20051;-56
2021/01/10 03:42:40;;;;;;;18.63;9.20;;;;;;;;;;5086225;28;20040;-57
2021/01/10 03:45:07;;;;;;;15.13;7.93;;;;;;;;;;5085887;28;20394;-57
2021/01/10 03:47:33;;;;;;;14.50;7.32;;;;;;;;;;5085819;28;20048;-56
2021/01/10 03:50:00;;;;;;;12.90;7.40;;;;;;;;;;5085871;28;20016;-57
2021/01/10 03:52:26;;;;;;;13.00;7.18;;;;;;;;;;5086495;28;20032;-56
2021/01/10 03:54:52;;;;;;;15.63;7.45;;;;;;;;;;5086354;28;20126;-56
2021/01/10 03:57:18;;;;;;;15.13;7.28;;;;;;;;;;5085691;28;20034;-57
2021/01/10 03:59:44;;;;;;;13.80;7.07;;;;;;;;;;5085649;28;20098;-57
2021/01/10 04:02:10;;;;;;;14.80;7.47;;;;;;;;;;5085365;28;20123;-56
2021/01/10 04:04:36;;;;;;;13.93;7.72;;;;;;;;;;5085791;28;20574;-56
2021/01/10 04:07:04;;;;;;;18.50;8.93;;;;;;;;;;5085655;28;20039;-57
2021/01/10 04:09:30;;;;;;;17.25;8.68;;;;;;;;;;5085546;28;20073;-57
2021/01/10 04:11:57;;;;;;;17.30;9.52;;;;;;;;;;5086464;28;20024;-57
2021/01/10 04:14:23;;;;;;;16.38;8.02;;;;;;;;;;5088493;28;20016;-56
2021/01/10 04:16:51;;;;;;;14.70;7.10;;;;;;;;;;5105893;28;20031;-57
2021/01/10 04:19:17;;;;;;;13.93;7.55;;;;;;;;;;5099001;28;20090;-57
2021/01/10 04:21:43;;;;;;;12.15;6.97;;;;;;;;;;5085590;28;20144;-57
2021/01/10 04:24:10;;;;;;;14.50;8.23;;;;;;;;;;5085352;28;20028;-57
2021/01/10 04:26:46;;;;;;;17.13;9.55;;;;;;;;;;5085369;28;20111;-56
2021/01/10 04:29:13;;;;;;;17.30;9.65;;;;;;;;;;5084626;28;20379;-57
2021/01/10 04:31:39;;;;;;;15.68;8.40;;;;;;;;;;5084669;28;20103;-57
2021/01/10 04:34:05;;;;;;;14.23;7.68;;;;;;;;;;5085267;28;20089;-56
2021/01/10 04:36:31;;;;;;;13.60;7.63;;;;;;;;;;5085131;28;20476;-57
2021/01/10 04:38:58;;;;;;;13.95;7.05;;;;;;;;;;5085133;28;20074;-56
2021/01/10 04:41:24;;;;;;;14.88;7.40;;;;;;;;;;5084816;28;20508;-57
2021/01/10 04:43:51;;;;;;;17.60;8.07;;;;;;;;;;5084946;28;20035;-56
2021/01/10 04:46:17;;;;;;;13.52;7.18;;;;;;;;;;5084635;28;20433;-57
2021/01/10 04:48:44;;;;;;;17.08;8.75;;;;;;;;;;5084860;28;20020;-57
2021/01/10 04:51:13;;;;;;;13.98;7.57;;;;;;;;;;5084112;28;20458;-55
2021/01/10 04:53:41;;;;;;;14.77;7.82;;;;;;;;;;5085534;28;20030;-56
2021/01/10 04:56:08;;;;;;;13.88;7.25;;;;;;;;;;5085109;28;20036;-57
2021/01/10 04:58:36;;;;;;;12.05;6.82;;;;;;;;;;5084550;28;20028;-56
2021/01/10 05:01:03;;;;;;;15.13;7.30;;;;;;;;;;5083119;28;20282;-56
2021/01/10 05:03:31;;;;;;;12.45;7.50;;;;;;;;;;5084575;28;20028;-56
2021/01/10 05:05:57;;;;;;;13.02;7.05;;;;;;;;;;5084629;28;20394;-56
2021/01/10 05:08:25;;;;;;;11.30;5.70;;;;;;;;;;5084368;28;20016;-56
2021/01/10 05:10:51;;;;;;;13.48;6.85;;;;;;;;;;5084575;28;20559;-56
2021/01/10 05:13:18;;;;;;;13.68;7.40;;;;;;;;;;5084208;28;20024;-56
2021/01/10 05:15:44;;;;;;;13.85;7.97;;;;;;;;;;5084281;28;20035;-56
2021/01/10 05:18:10;;;;;;;13.18;7.28;;;;;;;;;;5084800;28;20035;-56
2021/01/10 05:20:37;;;;;;;14.35;8.25;;;;;;;;;;5085088;28;20030;-55
2021/01/10 05:23:03;;;;;;;13.15;6.78;;;;;;;;;;5084629;28;20024;-56
2021/01/10 05:25:30;;;;;;;13.93;7.45;;;;;;;;;;5085338;28;20048;-56
2021/01/10 05:27:58;;;;;;;14.82;7.80;;;;;;;;;;5091110;28;20062;-56
2021/01/10 05:30:27;;;;;;;15.75;8.55;;;;;;;;;;5090249;28;20024;-56
2021/01/10 05:33:02;;;;;;;14.15;7.82;;;;;;;;;;5090716;28;20120;-56
2021/01/10 05:35:28;;;;;;;14.27;7.93;;;;;;;;;;5090936;28;20032;-56
2021/01/10 05:37:55;;;;;;;13.50;7.22;;;;;;;;;;5091052;28;20103;-56
2021/01/10 05:40:23;;;;;;;13.82;7.10;;;;;;;;;;5091205;28;20111;-57
2021/01/10 05:42:50;;;;;;;14.52;7.35;;;;;;;;;;5090990;28;20042;-55
2021/01/10 05:45:30;;;;;;;12.05;7.15;;;;;;;;;;5090556;28;20114;-55
2021/01/10 05:47:56;;;;;;;14.32;7.72;;;;;;;;;;5090997;28;20036;-56
2021/01/10 05:50:22;;;;;;;13.80;7.95;;;;;;;;;;5090583;28;20023;-56
2021/01/10 05:52:49;;;;;;;17.20;7.93;;;;;;;;;;5091037;28;20028;-55
2021/01/10 05:55:17;;;;;;;15.85;8.27;;;;;;;;;;5090842;28;20035;-56
2021/01/10 05:57:43;;;;;;;12.35;6.93;;;;;;;;;;5091034;28;20024;-56
2021/01/10 06:00:09;;;;;;;10.50;6.03;;;;;;;;;;5090844;28;20497;-56
2021/01/10 06:02:37;;;;;;;17.65;7.65;;;;;;;;;;5091220;28;20081;-56
2021/01/10 06:05:13;;;;;;;14.98;7.80;;;;;;;;;;5090929;28;20024;-56
2021/01/10 06:07:39;;;;;;;15.38;7.63;;;;;;;;;;5091551;28;20103;-56
2021/01/10 06:10:06;;;;;;;13.13;7.07;;;;;;;;;;5090693;28;20028;-56
2021/01/10 06:12:33;;;;;;;17.92;8.90;;;;;;;;;;5088658;28;20023;-56
2021/01/10 06:15:09;;;;;;;19.10;8.80;;;;;;;;;;5090777;28;20024;-56
2021/01/10 06:17:42;;;;;;;18.55;8.82;;;;;;;;;;5090412;28;20580;-56
2021/01/10 06:20:18;;;;;;;20.05;9.65;;;;;;;;;;5090642;28;20402;-56
2021/01/10 06:22:49;;;;;;;22.58;9.52;;;;;;;;;;5090459;28;20038;-56
2021/01/10 06:25:16;;;;;;;33.30;12.32;;;;;;;;;;5090378;28;20051;-56
2021/01/10 06:27:42;;;;;;;36.47;13.63;;;;;;;;;;5090225;28;20028;-56
2021/01/10 06:30:09;;;;;;;26.95;10.63;;;;;;;;;;5089660;28;20293;-56
2021/01/10 06:32:36;;;;;;;21.33;9.25;;;;;;;;;;5090914;28;20028;-56
2021/01/10 06:35:02;;;;;;;22.02;9.48;;;;;;;;;;5090576;28;20077;-57
2021/01/10 06:37:28;;;;;;;21.23;9.75;;;;;;;;;;5088387;28;20024;-56
2021/01/10 06:39:58;;;;;;;19.73;9.38;;;;;;;;;;5087407;28;20061;-56
2021/01/10 06:42:26;;;;;;;19.13;9.07;;;;;;;;;;5086249;28;20036;-56
2021/01/10 06:44:52;;;;;;;15.68;7.50;;;;;;;;;;5088082;28;20024;-56
2021/01/10 06:47:20;;;;;;;12.63;6.95;;;;;;;;;;5086511;28;20051;-56
2021/01/10 06:49:46;;;;;;;13.95;6.95;;;;;;;;;;5086544;28;20027;-54
2021/01/10 06:52:12;;;;;;;13.55;7.13;;;;;;;;;;5087497;28;20028;-55
2021/01/10 06:54:42;;;;;;;13.18;7.90;;;;;;;;;;5089016;28;20016;-56
2021/01/10 06:57:08;;;;;;;14.88;8.18;;;;;;;;;;5084702;28;20027;-55
2021/01/10 06:59:54;;;;;;;12.93;7.80;;;;;;;;;;5067384;28;20012;-56
2021/01/10 07:02:21;;;;;;;16.08;8.88;;;;;;;;;;5067719;28;20674;-56
2021/01/10 07:04:54;;;;;;;13.25;7.72;;;;;;;;;;5067260;28;20094;-56
2021/01/10 07:07:35;;;;;;;16.27;8.40;;;;;;;;;;5068032;28;20025;-57
2021/01/10 07:10:02;;;;;;;12.98;6.97;;;;;;;;;;5066746;28;20025;-55
2021/01/10 07:12:28;;;;;;;15.13;8.55;;;;;;;;;;5066723;28;20085;-55
2021/01/10 07:14:54;;;;;;;15.70;8.07;;;;;;;;;;5066738;28;20117;-56
2021/01/10 07:17:20;;;;;;;12.35;6.80;;;;;;;;;;5067396;28;20033;-56
2021/01/10 07:19:47;;;;;;;11.10;6.53;;;;;;;;;;5080685;28;20062;-55
2021/01/10 07:22:32;;;;;;;11.05;5.75;;;;;;;;;;5088003;28;20028;-56
2021/01/10 07:25:18;;;;;;;11.30;6.35;;;;;;;;;;5087389;28;20057;-56
2021/01/10 07:27:44;;;;;;;12.48;6.63;;;;;;;;;;5066287;28;20364;-56
2021/01/10 07:30:24;;;;;;;12.48;6.20;;;;;;;;;;5067112;28;20166;-56
2021/01/10 07:32:50;;;;;;;9.68;5.75;;;;;;;;;;5088338;28;20505;-56
2021/01/10 07:35:16;;;;;;;11.52;6.70;;;;;;;;;;5087921;28;20089;-55
2021/01/10 07:37:44;;;;;;;11.10;5.97;;;;;;;;;;5088001;28;20379;-54
2021/01/10 07:40:11;;;;;;;11.60;6.47;;;;;;;;;;5087710;28;20127;-56
2021/01/10 07:42:38;;;;;;;11.88;6.57;;;;;;;;;;5088014;28;20032;-55
2021/01/10 07:45:20;;;;;;;13.18;7.20;;;;;;;;;;5087944;28;20047;-56
2021/01/10 07:47:53;;;;;;;13.75;7.70;;;;;;;;;;5087645;28;20100;-57
2021/01/10 07:50:21;;;;;;;16.27;8.17;;;;;;;;;;5087827;28;20024;-52
2021/01/10 07:52:57;;;;;;;14.27;7.28;;;;;;;;;;5086972;28;20059;-55
2021/01/10 07:55:24;;;;;;;15.52;8.25;;;;;;;;;;5084755;28;20460;-56
2021/01/10 07:58:02;;;;;;;15.90;8.20;;;;;;;;;;5086810;28;20063;-55
2021/01/10 08:00:33;;;;;;;15.57;8.13;;;;;;;;;;5085805;28;20035;-56
2021/01/10 08:02:59;;;;;;;13.95;7.72;;;;;;;;;;5086064;28;20035;-54
2021/01/10 08:05:32;;;;;;;18.08;9.13;;;;;;;;;;5085603;28;20020;-54
2021/01/10 08:08:16;;;;;;;19.05;8.40;;;;;;;;;;5086279;28;20115;-55
2021/01/10 08:10:42;;;;;;;18.67;9.68;;;;;;;;;;5083943;28;20247;-53
2021/01/10 08:13:29;;;;;;;18.85;9.85;;;;;;;;;;5079657;28;20032;-55
2021/01/10 08:15:57;;;;;;;18.38;9.02;;;;;;;;;;5086178;28;20115;-55
2021/01/10 08:18:24;;;;;;;16.98;8.48;;;;;;;;;;5085893;28;20034;-56
2021/01/10 08:20:51;;;;;;;14.43;7.18;;;;;;;;;;5084111;28;20036;-55
2021/01/10 08:23:18;;;;;;;16.00;8.30;;;;;;;;;;5084767;28;20032;-55
2021/01/10 08:25:44;;;;;;;14.43;7.75;;;;;;;;;;5085502;28;20023;-54
2021/01/10 08:28:12;;;;;;;14.35;7.65;;;;;;;;;;5084012;28;20042;-57
2021/01/10 08:30:38;;;;;;;14.25;8.02;;;;;;;;;;5085301;28;20227;-55
2021/01/10 08:33:04;;;;;;;14.55;8.07;;;;;;;;;;5085546;28;20066;-55
2021/01/10 08:35:31;;;;;;;13.40;7.43;;;;;;;;;;5084866;28;20058;-56
2021/01/10 08:37:57;;;;;;;14.13;7.97;;;;;;;;;;5085325;28;20093;-56
2021/01/10 08:40:23;;;;;;;12.00;6.97;;;;;;;;;;5085586;28;20055;-57
2021/01/10 08:42:49;;;;;;;13.18;7.43;;;;;;;;;;5084992;28;20493;-56
2021/01/10 08:45:16;;;;;;;11.48;6.22;;;;;;;;;;5085235;28;20023;-52
2021/01/10 08:47:43;;;;;;;12.45;6.63;;;;;;;;;;5083956;28;20039;-55
2021/01/10 08:50:10;;;;;;;10.32;5.70;;;;;;;;;;5084714;28;20016;-54
2021/01/10 08:52:51;;;;;;;9.75;5.30;;;;;;;;;;5085400;28;20032;-55
2021/01/10 08:55:28;;;;;;;10.63;5.55;;;;;;;;;;5085269;28;20123;-55
2021/01/10 08:57:54;;;;;;;13.55;7.75;;;;;;;;;;5085407;28;20078;-55
2021/01/10 09:00:20;;;;;;;12.25;6.90;;;;;;;;;;5084284;28;20055;-54
2021/01/10 09:02:47;;;;;;;14.23;7.93;;;;;;;;;;5084923;28;20387;-54
2021/01/10 09:05:22;;;;;;;14.85;8.38;;;;;;;;;;5084715;28;20028;-55
2021/01/10 09:07:49;;;;;;;14.52;8.45;;;;;;;;;;5085007;28;20028;-55
2021/01/10 09:10:16;;;;;;;14.07;8.13;;;;;;;;;;5084603;28;20170;-56
2021/01/10 09:12:52;;;;;;;14.35;8.18;;;;;;;;;;5084393;28;20039;-54
2021/01/10 09:15:19;;;;;;;13.05;7.70;;;;;;;;;;5084176;28;20043;-55
2021/01/10 09:18:08;;;;;;;14.85;7.18;;;;;;;;;;5083379;28;20028;-56
2021/01/10 09:20:40;;;;;;;15.85;8.32;;;;;;;;;;5075952;28;20035;-54
2021/01/10 09:23:09;;;;;;;13.40;7.57;;;;;;;;;;5085852;28;20036;-54
2021/01/10 09:25:35;;;;;;;12.75;6.78;;;;;;;;;;5086359;28;20721;-55
2021/01/10 09:28:06;;;;;;;11.02;6.35;;;;;;;;;;5085364;28;20524;-56
2021/01/10 09:30:33;;;;;;;13.27;7.20;;;;;;;;;;5086139;28;20048;-56
2021/01/10 09:32:59;;;;;;;13.18;6.85;;;;;;;;;;5086108;28;20036;-56
2021/01/10 09:35:25;;;;;;;13.98;6.68;;;;;;;;;;5086635;28;20020;-54
2021/01/10 09:37:51;;;;;;;11.07;6.53;;;;;;;;;;5086104;28;20041;-55
2021/01/10 09:40:18;;;;;;;13.60;7.63;;;;;;;;;;5084524;28;20028;-56
2021/01/10 09:42:46;;;;;;;10.55;6.13;;;;;;;;;;5085950;28;20109;-56
2021/01/10 09:45:12;;;;;;;11.25;6.35;;;;;;;;;;5084876;28;20077;-56
2021/01/10 09:47:39;;;;;;;10.70;6.63;;;;;;;;;;5084363;28;20157;-56
2021/01/10 09:50:11;;;;;;;11.48;6.45;;;;;;;;;;5086027;28;20554;-55
2021/01/10 09:52:53;;;;;;;10.15;6.50;;;;;;;;;;5085948;28;20790;-56
2021/01/10 09:55:27;;;;;;;14.23;7.88;;;;;;;;;;5084390;28;20193;-55
2021/01/10 09:57:53;;;;;;;13.75;7.72;;;;;;;;;;5086008;28;20406;-54
2021/01/10 10:00:20;;;;;;;16.42;8.70;;;;;;;;;;5085558;28;20024;-55
2021/01/10 10:02:49;;;;;;;13.35;7.43;;;;;;;;;;5084703;28;20552;-55
2021/01/10 10:05:22;;;;;;;11.65;6.82;;;;;;;;;;5085377;28;20027;-55
2021/01/10 10:07:49;;;;;;;12.63;6.65;;;;;;;;;;5085647;28;20727;-54
2021/01/10 10:10:21;;;;;;;12.88;7.05;;;;;;;;;;5085512;28;20024;-51
2021/01/10 10:12:51;;;;;;;10.32;6.22;;;;;;;;;;5086338;28;21043;-54
2021/01/10 10:15:17;;;;;;;13.30;7.85;;;;;;;;;;5089113;28;20035;-51
2021/01/10 10:17:43;;;;;;;17.08;9.77;;;;;;;;;;5082682;28;20539;-53
2021/01/10 10:20:10;;;;;;;15.85;8.73;;;;;;;;;;5088926;28;20631;-54
2021/01/10 10:22:36;;;;;;;14.90;7.85;;;;;;;;;;5084434;28;20028;-53
2021/01/10 10:25:09;;;;;;;16.60;9.10;;;;;;;;;;5087804;28;20327;-54
2021/01/10 10:27:36;;;;;;;15.98;8.48;;;;;;;;;;5087701;28;20028;-52
2021/01/10 10:30:03;;;;;;;24.58;14.25;;;;;;;;;;5087507;28;20510;-55
2021/01/10 10:32:29;;;;;;;19.45;10.60;;;;;;;;;;5087621;28;20024;-54
2021/01/10 10:34:56;;;;;;;16.55;9.23;;;;;;;;;;5088189;28;20046;-52
2021/01/10 10:37:23;;;;;;;15.73;8.35;;;;;;;;;;5087383;28;20024;-54
2021/01/10 10:39:49;;;;;;;13.50;7.63;;;;;;;;;;5087534;28;20024;-55
2021/01/10 10:42:16;;;;;;;12.55;7.22;;;;;;;;;;5081813;28;20032;-55
2021/01/10 10:44:42;;;;;;;13.43;6.82;;;;;;;;;;5086776;28;20032;-53
2021/01/10 10:47:15;;;;;;;13.23;6.93;;;;;;;;;;5086782;28;20055;-57
2021/01/10 10:49:42;;;;;;;12.60;7.03;;;;;;;;;;5088119;28;20031;-56
2021/01/10 10:52:09;;;;;;;12.23;6.85;;;;;;;;;;5088766;28;20031;-55
2021/01/10 10:54:35;;;;;;;14.25;8.20;;;;;;;;;;5088943;28;20474;-55
2021/01/10 10:57:01;;;;;;;13.35;7.53;;;;;;;;;;5088661;28;20137;-55
2021/01/10 10:59:28;;;;;;;13.70;7.30;;;;;;;;;;5087848;28;20036;-56
2021/01/10 11:01:54;;;;;;;10.48;5.93;;;;;;;;;;5076715;28;20406;-55
2021/01/10 11:04:20;;;;;;;11.90;6.65;;;;;;;;;;5088010;28;20120;-57
2021/01/10 11:06:46;;;;;;;9.75;5.82;;;;;;;;;;5088596;28;20636;-56
2021/01/10 11:09:12;;;;;;;11.20;6.15;;;;;;;;;;5088198;28;20713;-56
2021/01/10 11:11:40;;;;;;;13.35;7.47;;;;;;;;;;5088173;28;20032;-56
2021/01/10 11:14:06;;;;;;;13.88;7.25;;;;;;;;;;5075680;28;20090;-56
2021/01/10 11:16:36;;;;;;;13.63;7.55;;;;;;;;;;5066409;28;20024;-56
2021/01/10 11:19:03;;;;;;;13.25;7.43;;;;;;;;;;5083583;28;20056;-55
2021/01/10 11:21:29;;;;;;;13.75;7.47;;;;;;;;;;5087807;28;20466;-54
2021/01/10 11:23:56;;;;;;;11.32;6.03;;;;;;;;;;5074523;28;20078;-56
2021/01/10 11:26:22;;;;;;;15.45;8.52;;;;;;;;;;5087176;28;20028;-54
2021/01/10 11:28:48;;;;;;;14.80;8.35;;;;;;;;;;5087861;28;20478;-55
2021/01/10 11:31:14;;;;;;;13.32;8.07;;;;;;;;;;5083229;28;20047;-56
2021/01/10 11:33:40;;;;;;;17.80;9.80;;;;;;;;;;5067954;28;20578;-54
2021/01/10 11:36:07;;;;;;;15.90;9.07;;;;;;;;;;5067490;28;20021;-55
2021/01/10 11:38:34;;;;;;;12.50;7.70;;;;;;;;;;5067601;28;20035;-55
2021/01/10 11:41:10;;;;;;;15.13;8.70;;;;;;;;;;5067218;28;20098;-54
2021/01/10 11:43:37;;;;;;;13.23;7.50;;;;;;;;;;5067463;28;20452;-54
2021/01/10 11:46:04;;;;;;;14.02;7.47;;;;;;;;;;5070912;28;20396;-53
2021/01/10 11:48:30;;;;;;;10.73;6.75;;;;;;;;;;5067286;28;20063;-53
2021/01/10 11:50:57;;;;;;;14.00;8.52;;;;;;;;;;5067689;28;20734;-53
2021/01/10 11:53:23;;;;;;;11.77;7.35;;;;;;;;;;5067644;28;20055;-52
2021/01/10 11:55:49;;;;;;;12.65;7.75;;;;;;;;;;5069203;28;20033;-53
2021/01/10 11:58:15;;;;;;;16.15;9.50;;;;;;;;;;5082223;28;20020;-54
2021/01/10 12:00:41;;;;;;;16.65;10.15;;;;;;;;;;5085771;28;20039;-52
2021/01/10 12:03:08;;;;;;;13.57;8.20;;;;;;;;;;5085400;28;20058;-51
2021/01/10 12:05:35;;;;;;;13.93;8.50;;;;;;;;;;5083273;28;20461;-51
2021/01/10 12:08:02;;;;;;;13.27;7.90;;;;;;;;;;5085673;28;20017;-51
2021/01/10 12:10:28;;;;;;;12.50;7.13;;;;;;;;;;5078741;28;20024;-51
2021/01/10 12:12:55;;;;;;;12.70;7.07;;;;;;;;;;5079444;28;20024;-50
2021/01/10 12:15:22;;;;;;;11.88;6.80;;;;;;;;;;5084699;28;20089;-52
2021/01/10 12:17:48;;;;;;;9.73;5.93;;;;;;;;;;5084636;28;20363;-52
2021/01/10 12:20:14;;;;;;;11.75;6.55;;;;;;;;;;5084866;28;20494;-54
2021/01/10 12:22:40;;;;;;;10.52;6.35;;;;;;;;;;5084924;28;20429;-53
2021/01/10 12:25:06;;;;;;;9.43;6.03;;;;;;;;;;5084305;28;20548;-53
2021/01/10 12:27:32;;;;;;;10.98;6.63;;;;;;;;;;5084180;28;20023;-51
2021/01/10 12:29:59;;;;;;;10.10;5.85;;;;;;;;;;5085105;28;20019;-50
2021/01/10 12:32:28;;;;;;;11.32;6.47;;;;;;;;;;5070646;28;20048;-53
2021/01/10 12:34:54;;;;;;;14.40;8.90;;;;;;;;;;5064766;28;20062;-55
2021/01/10 12:37:22;;;;;;;14.15;8.30;;;;;;;;;;5064851;28;20025;-53
2021/01/10 12:39:48;;;;;;;13.18;7.55;;;;;;;;;;5064951;28;20033;-54
2021/01/10 12:42:14;;;;;;;10.48;6.35;;;;;;;;;;5064351;28;20975;-54
2021/01/10 12:44:40;;;;;;;10.40;6.35;;;;;;;;;;5079870;28;20036;-50
2021/01/10 12:47:10;;;;;;;9.32;5.97;;;;;;;;;;5083670;28;20027;-50
2021/01/10 12:49:38;;;;;;;9.93;6.43;;;;;;;;;;5084625;28;20035;-49
2021/01/10 12:52:07;;;;;;;10.85;6.28;;;;;;;;;;5084649;28;20508;-49
2021/01/10 12:54:33;;;;;;;10.02;6.50;;;;;;;;;;5084798;28;20047;-52
2021/01/10 12:56:59;;;;;;;9.88;6.30;;;;;;;;;;5084487;28;20418;-50
2021/01/10 12:59:25;;;;;;;12.75;6.53;;;;;;;;;;5084378;28;20023;-51
2021/01/10 13:01:51;;;;;;;11.93;6.63;;;;;;;;;;5085423;28;20034;-49
2021/01/10 13:04:17;;;;;;;11.18;6.40;;;;;;;;;;5084356;28;20050;-51
2021/01/10 13:06:43;;;;;;;11.27;6.00;;;;;;;;;;5084515;28;20035;-51
2021/01/10 13:09:09;;;;;;;11.68;6.57;;;;;;;;;;5083514;28;20032;-49
2021/01/10 13:11:36;;;;;;;9.15;5.95;;;;;;;;;;5084333;28;20024;-53
2021/01/10 13:14:02;;;;;;;10.75;5.95;;;;;;;;;;5083726;28;20106;-53
2021/01/10 13:16:28;;;;;;;11.90;6.55;;;;;;;;;;5084602;28;20115;-51
2021/01/10 13:18:54;;;;;;;9.00;5.63;;;;;;;;;;5084698;28;20055;-52
2021/01/10 13:21:20;;;;;;;10.60;6.18;;;;;;;;;;5084810;28;20031;-54
2021/01/10 13:23:47;;;;;;;8.50;5.45;;;;;;;;;;5084713;28;20024;-54
2021/01/10 13:26:19;;;;;;;16.70;8.90;;;;;;;;;;5081977;28;20021;-52
2021/01/10 13:28:46;;;;;;;17.65;10.27;;;;;;;;;;5076868;28;20111;-53
2021/01/10 13:31:12;;;;;;;17.35;9.68;;;;;;;;;;5074714;28;20024;-53
2021/01/10 13:33:38;;;;;;;14.23;8.75;;;;;;;;;;5072264;28;20028;-51
2021/01/10 13:36:06;;;;;;;14.75;8.70;;;;;;;;;;5067136;28;20589;-53
2021/01/10 13:38:32;;;;;;;14.80;9.13;;;;;;;;;;5083944;28;20099;-53
2021/01/10 13:40:58;;;;;;;13.70;8.20;;;;;;;;;;5083839;28;20112;-50
2021/01/10 13:43:24;;;;;;;12.57;7.45;;;;;;;;;;5084470;28;20421;-52
2021/01/10 13:45:51;;;;;;;14.35;7.78;;;;;;;;;;5084676;28;20534;-50
2021/01/10 13:48:17;;;;;;;10.65;7.00;;;;;;;;;;5086889;28;20026;-51
2021/01/10 13:50:44;;;;;;;12.13;7.18;;;;;;;;;;5087987;28;20061;-52
2021/01/10 13:53:10;;;;;;;12.05;7.22;;;;;;;;;;5087701;28;20036;-50
2021/01/10 13:55:36;;;;;;;11.10;6.80;;;;;;;;;;5087773;28;20035;-53
2021/01/10 13:58:03;;;;;;;9.60;6.63;;;;;;;;;;5087665;28;20032;-55
2021/01/10 14:00:30;;;;;;;12.55;6.82;;;;;;;;;;5082263;28;20550;-50
2021/01/10 14:02:56;;;;;;;11.40;6.93;;;;;;;;;;5087013;28;20049;-53
2021/01/10 14:05:22;;;;;;;9.27;5.88;;;;;;;;;;5088267;28;20123;-52
2021/01/10 14:07:48;;;;;;;13.73;6.18;;;;;;;;;;5085964;28;20092;-52
2021/01/10 14:10:14;;;;;;;10.48;6.75;;;;;;;;;;5081928;28;20044;-51
2021/01/10 14:12:43;;;;;;;11.50;6.60;;;;;;;;;;5086303;28;20107;-50
2021/01/10 14:15:16;;;;;;;10.38;6.43;;;;;;;;;;5085421;28;20024;-53
2021/01/10 14:17:42;;;;;;;9.35;6.43;;;;;;;;;;5082467;28;20035;-50
2021/01/10 14:20:08;;;;;;;12.15;7.15;;;;;;;;;;5082916;28;20016;-53
2021/01/10 14:22:34;;;;;;;10.50;6.00;;;;;;;;;;5087383;28;20036;-54
2021/01/10 14:25:00;;;;;;;8.68;6.10;;;;;;;;;;5084878;28;20051;-54
2021/01/10 14:27:27;;;;;;;10.27;6.22;;;;;;;;;;5074198;28;20032;-53
2021/01/10 14:29:54;;;;;;;11.77;7.10;;;;;;;;;;5073658;28;20197;-55
2021/01/10 14:32:20;;;;;;;13.32;7.38;;;;;;;;;;5085430;28;20020;-52